Time;durP1;ratioP1;P1;durP2;ratioP2;P2;SDS_P1;SDS_P2;PMS_P1;PMS_P2;Temp;Humidity;BMP_temperature;BMP_pressure;BME280_temperature;BME280_humidity;BME280_pressure;Samples;Min_cycle;Max_cycle;Signal;HPM_P1;HPM_P2
2022/12/29 05:58:16;;;;;;;7.25;6.40;;;;;;;0.13;100.00;100094.34;1833898;74;26618;-61
2022/12/29 06:00:43;;;;;;;6.05;5.22;;;;;;;0.44;100.00;100093.23;1822477;76;21566;-63
2022/12/29 06:03:10;;;;;;;5.35;4.30;;;;;;;0.55;100.00;100084.23;1809742;75;21887;-64
2022/12/29 06:05:37;;;;;;;6.87;4.50;;;;;;;0.62;100.00;100075.62;1824614;76;21522;-63
2022/12/29 06:08:04;;;;;;;6.33;4.00;;;;;;;0.68;100.00;100072.19;1757415;79;21521;-63
2022/12/29 06:10:31;;;;;;;5.87;3.77;;;;;;;0.74;100.00;100068.36;1764707;79;21036;-62
2022/12/29 06:13:05;;;;;;;5.17;3.95;;;;;;;0.80;100.00;100067.52;1734745;79;21623;-62
2022/12/29 06:15:33;;;;;;;7.83;4.17;;;;;;;0.83;100.00;100067.51;1764535;79;21821;-61
2022/12/29 06:17:59;;;;;;;4.25;3.33;;;;;;;0.87;100.00;100069.27;1759847;80;21401;-61
2022/12/29 06:20:27;;;;;;;6.95;4.50;;;;;;;0.91;100.00;100060.21;1770492;78;21710;-61
2022/12/29 06:22:54;;;;;;;7.62;5.65;;;;;;;0.92;100.00;100080.08;1788251;78;21553;-62
2022/12/29 06:25:20;;;;;;;6.60;4.85;;;;;;;0.94;100.00;100069.30;1770936;78;21607;-60
2022/12/29 06:27:48;;;;;;;6.75;4.72;;;;;;;0.94;100.00;100070.59;1751359;78;21813;-60
2022/12/29 06:30:15;;;;;;;6.92;4.53;;;;;;;1.00;100.00;100073.63;1765513;78;21030;-60
2022/12/29 07:14:23;;;;;;;6.67;4.42;;;;;;;-0.29;100.00;100079.36;1767009;78;23200;-67
2022/12/29 07:16:50;;;;;;;5.28;4.72;;;;;;;0.20;100.00;100106.87;1730754;80;21431;-66
2022/12/29 10:10:36;;;;;;;6.97;4.83;;;;;;;1.84;100.00;99972.16;1752780;79;22797;-62
2022/12/29 10:13:12;;;;;;;4.95;4.45;;;;;;;2.24;100.00;99971.63;1728370;81;21537;-63
2022/12/29 10:19:34;;;;;;;5.95;4.80;;;;;;;2.66;100.00;99968.85;1659544;84;21444;-61
2022/12/29 10:22:15;;;;;;;6.45;5.33;;;;;;;2.86;100.00;99953.13;1602651;87;21627;-61
2022/12/29 10:24:42;;;;;;;5.40;4.42;;;;;;;2.80;100.00;99948.84;1600656;88;21645;-62
2022/12/29 10:27:12;;;;;;;6.03;4.92;;;;;;;3.02;100.00;99946.97;1641590;85;21681;-61
2022/12/29 10:29:49;;;;;;;7.15;5.37;;;;;;;3.04;100.00;99943.92;1664335;85;20980;-62
2022/12/29 10:32:38;;;;;;;9.28;5.55;;;;;;;3.05;100.00;99955.17;1661369;85;21661;-64
2022/12/29 10:35:23;;;;;;;8.13;5.20;;;;;;;3.15;100.00;99959.89;1665306;84;21589;-65
2022/12/29 10:38:07;;;;;;;5.33;4.83;;;;;;;3.16;100.00;99943.41;1664999;84;21547;-61
2022/12/29 10:40:42;;;;;;;6.83;4.80;;;;;;;3.15;100.00;99942.55;1661896;85;21581;-62
2022/12/29 10:43:32;;;;;;;4.65;4.10;;;;;;;3.19;100.00;99938.20;1675620;82;21427;-63
2022/12/29 10:46:03;;;;;;;9.25;6.35;;;;;;;3.22;100.00;99932.54;1686833;83;21436;-64
2022/12/29 10:48:32;;;;;;;10.88;7.25;;;;;;;3.22;100.00;99931.23;1691780;84;21645;-66
2022/12/29 10:51:03;;;;;;;8.88;6.28;;;;;;;3.29;100.00;99934.19;1694581;84;21495;-65
2022/12/29 10:53:43;;;;;;;11.30;8.00;;;;;;;3.34;100.00;99928.97;1697406;83;21419;-62
2022/12/29 10:56:34;;;;;;;7.75;6.35;;;;;;;3.38;100.00;99937.16;1693922;82;21876;-68
2022/12/29 10:59:13;;;;;;;11.38;7.08;;;;;;;3.35;100.00;99929.81;1694483;84;21595;-66
2022/12/29 11:01:57;;;;;;;17.07;7.97;;;;;;;3.50;100.00;99927.96;1680294;82;21514;-64
2022/12/29 11:05:02;;;;;;;13.35;7.85;;;;;;;3.56;100.00;99927.04;1692949;82;21513;-62
2022/12/29 11:07:29;;;;;;;10.75;7.40;;;;;;;3.61;100.00;99923.94;1696381;84;21427;-62
2022/12/29 11:10:31;;;;;;;10.48;6.60;;;;;;;3.58;100.00;99918.78;1699038;82;21783;-62
2022/12/29 11:13:02;;;;;;;7.28;5.28;;;;;;;3.64;100.00;99913.95;1662466;84;21458;-60
2022/12/29 11:15:48;;;;;;;8.53;5.25;;;;;;;3.67;100.00;99900.91;1635204;85;21654;-60
2022/12/29 11:18:25;;;;;;;9.88;6.45;;;;;;;3.71;100.00;99903.89;1667260;84;21095;-61
2022/12/29 11:20:59;;;;;;;9.65;6.60;;;;;;;3.69;100.00;99905.23;1666865;84;21541;-61
2022/12/29 11:23:38;;;;;;;11.83;6.95;;;;;;;3.71;100.00;99909.09;1676866;84;21964;-60
2022/12/29 11:26:25;;;;;;;11.93;6.78;;;;;;;3.72;100.00;99912.13;1663023;84;21127;-59
2022/12/29 11:29:19;;;;;;;9.18;5.58;;;;;;;3.74;100.00;99913.42;1664517;85;21523;-60
2022/12/29 12:08:56;;;;;;;7.72;5.62;;;;;;;2.18;100.00;99939.20;1773184;78;23396;-60
2022/12/29 12:11:36;;;;;;;7.37;5.28;;;;;;;2.52;100.00;99947.72;1736970;80;21638;-64
2022/12/29 12:14:16;;;;;;;6.22;5.30;;;;;;;2.70;100.00;99941.99;1720135;81;21890;-59
2022/12/29 12:16:53;;;;;;;6.03;4.75;;;;;;;2.84;100.00;99945.79;1726415;80;21580;-62
2022/12/29 12:19:47;;;;;;;5.72;4.83;;;;;;;2.95;100.00;99943.13;1736157;80;21675;-65
2022/12/29 12:22:37;;;;;;;5.17;4.45;;;;;;;3.07;100.00;99948.22;1701135;81;21501;-64
2022/12/29 12:25:21;;;;;;;6.22;4.62;;;;;;;3.14;100.00;99949.05;1692246;83;21482;-61
2022/12/29 12:27:59;;;;;;;7.97;5.92;;;;;;;3.25;100.00;99952.43;1701441;82;21894;-60
2022/12/29 12:30:29;;;;;;;9.25;7.30;;;;;;;3.28;100.00;99953.72;1704786;83;21596;-62
2022/12/29 12:33:07;;;;;;;139.25;125.72;;;;;;;3.34;100.00;99947.16;1701497;82;21522;-65
2022/12/29 12:36:25;;;;;;;48.55;44.03;;;;;;;3.41;100.00;99938.44;1666866;84;21493;-62
2022/12/29 12:39:24;;;;;;;20.85;18.82;;;;;;;3.48;100.00;99940.53;1689942;82;21601;-64
2022/12/29 12:42:21;;;;;;;25.35;19.70;;;;;;;3.50;100.00;99938.77;1691201;83;21541;-64
2022/12/29 12:45:13;;;;;;;13.10;11.35;;;;;;;3.54;100.00;99931.36;1692511;83;21498;-71
2022/12/29 12:47:59;;;;;;;26.97;17.48;;;;;;;3.59;100.00;99928.73;1689964;83;21583;-67
2022/12/29 12:50:44;;;;;;;18.90;13.80;;;;;;;3.64;100.00;99924.36;1680490;83;21664;-69
2022/12/29 12:53:31;;;;;;;24.70;16.55;;;;;;;3.69;100.00;99922.14;1697623;83;21061;-70
2022/12/29 12:56:27;;;;;;;;;;;;;;;3.74;100.00;99912.13;1688897;82;21880;-65
2022/12/29 12:59:16;;;;;;;29.10;15.58;;;;;;;3.72;100.00;99901.73;1705413;83;20427;-70
2022/12/29 13:01:54;;;;;;;24.82;14.65;;;;;;;3.77;100.00;99906.86;1690909;82;21582;-69
2022/12/29 13:04:53;;;;;;;16.85;10.85;;;;;;;3.73;100.00;99885.67;1692847;82;21546;-69
2022/12/29 13:07:35;;;;;;;15.43;11.30;;;;;;;3.73;100.00;99889.16;1689963;82;21573;-66
2022/12/29 13:10:32;;;;;;;14.55;10.00;;;;;;;3.72;100.00;99884.82;1682649;83;22040;-67
2022/12/29 13:13:40;;;;;;;31.87;16.60;;;;;;;3.76;100.00;99886.50;1624840;85;21615;-70
2022/12/29 13:16:27;;;;;;;26.23;17.55;;;;;;;3.77;100.00;99888.24;1597138;86;21581;-66
2022/12/29 13:19:09;;;;;;;;;;;;;;;3.75;100.00;99891.72;1678806;83;21501;-62
2022/12/29 13:21:59;;;;;;;23.32;13.32;;;;;;;3.63;100.00;99906.57;1695807;82;20428;-66
2022/12/29 13:24:49;;;;;;;20.17;11.40;;;;;;;3.62;100.00;99920.47;1693184;82;21910;-65
2022/12/29 13:27:49;;;;;;;13.70;9.28;;;;;;;3.59;100.00;99933.94;1659774;85;21535;-63
2022/12/29 13:30:20;;;;;;;43.05;21.07;;;;;;;3.60;100.00;99930.03;1693126;82;21013;-70
2022/12/29 13:33:12;;;;;;;27.13;13.58;;;;;;;3.56;100.00;99932.23;1691769;82;21515;-66
2022/12/29 13:36:01;;;;;;;15.40;8.73;;;;;;;3.55;100.00;99933.55;1689517;82;21534;-67
2022/12/29 13:39:04;;;;;;;28.10;17.05;;;;;;;3.53;100.00;99927.05;1620944;83;21808;-68
2022/12/29 13:41:39;;;;;;;33.42;18.32;;;;;;;3.54;100.00;99933.96;1671924;83;21651;-64
2022/12/29 13:44:06;;;;;;;24.90;14.28;;;;;;;3.53;100.00;99928.36;1695123;82;21504;-65
2022/12/29 13:46:42;;;;;;;20.55;11.38;;;;;;;3.54;100.00;99927.47;1700469;82;21576;-68
2022/12/29 13:49:21;;;;;;;26.15;13.65;;;;;;;3.55;100.00;99924.45;1687578;82;21576;-65
2022/12/29 13:51:57;;;;;;;25.55;12.88;;;;;;;3.53;100.00;99924.45;1686273;82;21946;-64
2022/12/29 13:54:47;;;;;;;15.50;8.75;;;;;;;3.56;100.00;99933.95;1692697;82;21534;-65
2022/12/29 13:57:42;;;;;;;9.98;6.85;;;;;;;3.55;100.00;99927.90;1696198;82;21153;-64
2022/12/29 14:00:18;;;;;;;6.25;5.37;;;;;;;3.53;100.00;99924.91;1694864;83;21531;-68
2022/12/29 14:02:50;;;;;;;6.35;5.60;;;;;;;3.52;100.00;99926.62;1666802;83;21578;-68
2022/12/29 14:05:26;;;;;;;6.53;5.62;;;;;;;3.53;100.00;99934.86;1692073;82;21831;-68
2022/12/29 14:08:02;;;;;;;8.15;5.83;;;;;;;3.48;100.00;99932.31;1697238;82;21581;-65
2022/12/29 18:48:56;;;;;;;26.05;11.83;;;;;;;0.38;100.00;99864.27;1789386;77;23353;-66
2022/12/29 18:51:25;;;;;;;18.62;10.75;;;;;;;0.74;100.00;99877.67;1758735;80;21538;-65
2022/12/29 18:53:52;;;;;;;15.43;11.05;;;;;;;0.94;100.00;99873.81;1766098;78;21924;-66
2022/12/29 18:56:21;;;;;;;17.05;12.00;;;;;;;1.14;100.00;99874.22;1763769;79;21414;-67
2022/12/29 18:58:48;;;;;;;20.57;13.25;;;;;;;1.32;100.00;99872.06;1757484;79;21044;-67
2022/12/29 19:01:19;;;;;;;16.87;11.45;;;;;;;1.45;100.00;99868.58;1762349;80;21517;-68
2022/12/29 19:03:46;;;;;;;15.28;10.32;;;;;;;1.60;100.00;99869.38;1771200;80;21553;-68
2022/12/29 19:06:14;;;;;;;13.03;10.05;;;;;;;1.71;100.00;99867.62;1765394;80;22059;-65
2022/12/29 19:08:41;;;;;;;14.33;10.80;;;;;;;1.84;100.00;99871.89;1767754;79;21466;-65
2022/12/29 19:11:07;;;;;;;12.40;9.00;;;;;;;1.92;100.00;99866.67;1764319;80;21919;-65
2022/12/29 19:13:35;;;;;;;20.90;10.23;;;;;;;2.02;100.00;99867.53;1764297;80;21412;-67
2022/12/29 19:16:02;;;;;;;14.80;10.15;;;;;;;2.11;100.00;99862.27;1771565;80;21535;-67
2022/12/29 19:18:29;;;;;;;14.73;10.35;;;;;;;2.18;100.00;99860.52;1763558;80;21999;-66
2022/12/29 19:20:56;;;;;;;12.60;9.15;;;;;;;2.24;100.00;99867.85;1762303;80;21481;-67
2022/12/29 19:23:25;;;;;;;11.03;8.35;;;;;;;2.30;100.00;99863.92;1767219;80;21501;-64
2022/12/29 19:25:53;;;;;;;11.53;7.95;;;;;;;2.35;100.00;99863.87;1766532;80;21592;-65
2022/12/29 19:28:26;;;;;;;11.73;8.30;;;;;;;2.42;100.00;99861.67;1766078;80;21641;-67
2022/12/29 19:30:56;;;;;;;10.93;7.50;;;;;;;2.48;100.00;99862.08;1760206;80;21848;-65
2022/12/29 19:33:23;;;;;;;11.83;7.05;;;;;;;2.50;100.00;99866.81;1761340;80;21545;-68
2022/12/29 19:35:51;;;;;;;9.70;8.20;;;;;;;2.55;100.00;99862.91;1766111;80;21568;-66
2022/12/29 19:38:18;;;;;;;9.85;7.78;;;;;;;2.57;100.00;99855.97;1758054;80;21419;-67
2022/12/29 19:40:48;;;;;;;10.40;7.93;;;;;;;2.60;100.00;99858.53;1763141;80;21520;-67
2022/12/29 19:43:14;;;;;;;10.45;7.10;;;;;;;2.59;100.00;99858.97;1762590;80;21909;-66
2022/12/29 19:45:43;;;;;;;10.63;8.33;;;;;;;2.60;100.00;99856.81;1754183;80;21929;-66
2022/12/29 19:48:17;;;;;;;9.30;7.03;;;;;;;2.60;100.00;99859.41;1749588;80;21467;-66
2022/12/29 19:50:46;;;;;;;8.15;7.35;;;;;;;2.60;100.00;99856.81;1741248;80;21456;-64
2022/12/29 19:54:02;;;;;;;11.00;8.05;;;;;;;2.58;100.00;99846.00;1728232;78;21703;-63
2022/12/29 19:56:29;;;;;;;10.45;7.62;;;;;;;2.57;100.00;99841.25;1727452;80;21892;-63
2022/12/29 19:58:56;;;;;;;13.35;9.35;;;;;;;2.55;100.00;99840.41;1681664;82;21037;-63
2022/12/29 20:01:24;;;;;;;16.30;7.92;;;;;;;2.56;100.00;99836.91;1721682;81;21558;-64
2022/12/29 20:03:51;;;;;;;15.38;8.60;;;;;;;2.55;100.00;99838.25;1720659;81;21494;-63
2022/12/29 20:06:18;;;;;;;8.75;7.08;;;;;;;2.50;100.00;99839.56;1715970;81;21505;-64
2022/12/29 20:08:44;;;;;;;9.50;7.37;;;;;;;2.50;100.00;99844.75;1720967;82;22107;-62
2022/12/29 20:11:15;;;;;;;9.35;7.35;;;;;;;2.45;100.00;99836.13;1723842;82;21002;-63
2022/12/29 20:13:42;;;;;;;8.83;6.55;;;;;;;2.42;100.00;99837.47;1714611;81;21502;-62
2022/12/29 20:16:14;;;;;;;10.50;7.22;;;;;;;2.41;100.00;99838.32;1709749;82;28470;-62
2022/12/29 20:18:41;;;;;;;11.12;8.25;;;;;;;2.41;100.00;99839.63;1715367;80;21535;-63
2022/12/29 20:21:20;;;;;;;7.87;6.80;;;;;;;2.32;100.00;99836.22;1707552;82;21489;-62
2022/12/29 20:23:47;;;;;;;8.10;6.83;;;;;;;2.34;100.00;99834.92;1718945;82;21567;-62
2022/12/29 20:26:23;;;;;;;11.12;7.10;;;;;;;2.33;100.00;99831.44;1723448;81;21557;-61
2022/12/29 20:28:50;;;;;;;8.03;6.87;;;;;;;2.34;100.00;99839.67;1714684;82;21018;-62
2022/12/29 20:31:30;;;;;;;10.23;7.43;;;;;;;2.33;100.00;99831.89;1711558;81;21579;-61
2022/12/29 20:33:56;;;;;;;9.80;6.72;;;;;;;2.31;100.00;99840.13;1712940;82;21827;-63
2022/12/29 20:36:26;;;;;;;9.85;6.75;;;;;;;2.33;100.00;99835.78;1712662;81;21009;-63
2022/12/29 20:38:54;;;;;;;10.05;7.42;;;;;;;2.38;100.00;99839.22;1715956;81;21576;-62
2022/12/29 20:41:21;;;;;;;7.10;6.25;;;;;;;2.38;100.00;99835.77;1721222;81;21533;-63
2022/12/29 20:43:49;;;;;;;7.33;6.58;;;;;;;2.44;100.00;99839.17;1713601;81;21619;-64
2022/12/29 20:46:16;;;;;;;8.20;6.42;;;;;;;2.45;100.00;99838.72;1713503;81;21802;-65
2022/12/29 20:48:42;;;;;;;7.97;6.83;;;;;;;2.45;100.00;99839.61;1719381;80;21489;-63
2022/12/29 20:51:09;;;;;;;8.48;6.62;;;;;;;2.47;100.00;99844.34;1720181;81;21623;-64
2022/12/29 20:53:36;;;;;;;8.98;6.40;;;;;;;2.47;100.00;99839.61;1713622;80;21525;-64
2022/12/29 20:56:07;;;;;;;8.70;6.87;;;;;;;2.48;100.00;99845.20;1718028;80;21555;-64
2022/12/29 20:58:33;;;;;;;8.73;6.92;;;;;;;2.46;100.00;99843.91;1715821;80;22190;-64
2022/12/29 21:01:03;;;;;;;9.30;6.92;;;;;;;2.49;100.00;99850.39;1711970;81;21687;-64
2022/12/29 21:03:31;;;;;;;8.55;6.62;;;;;;;2.53;100.00;99852.53;1717070;80;21635;-63
2022/12/29 21:05:59;;;;;;;7.55;6.25;;;;;;;2.56;100.00;99845.15;1721467;80;21478;-64
2022/12/29 21:08:26;;;;;;;;;;;;;;;2.61;100.00;99845.55;1710419;81;21434;-63
2022/12/29 21:10:53;;;;;;;11.15;7.17;;;;;;;2.57;100.00;99833.46;1711136;81;21851;-63
2022/12/29 21:13:19;;;;;;;10.58;6.60;;;;;;;2.61;100.00;99827.81;1718718;81;21529;-64
2022/12/29 21:15:46;;;;;;;10.95;6.83;;;;;;;2.64;100.00;99828.66;1723020;81;21603;-64
2022/12/29 21:18:12;;;;;;;9.53;6.75;;;;;;;2.68;100.00;99827.75;1718529;81;21493;-63
2022/12/29 21:20:40;;;;;;;9.87;6.80;;;;;;;2.71;100.00;99829.45;1718957;81;21497;-64
2022/12/29 21:23:06;;;;;;;7.55;6.25;;;;;;;2.72;100.00;99828.15;1713356;81;21545;-64
2022/12/29 21:25:38;;;;;;;10.32;6.90;;;;;;;2.73;100.00;99825.99;1717745;82;21631;-64
2022/12/29 21:28:06;;;;;;;9.00;6.03;;;;;;;2.76;100.00;99826.84;1709688;81;21537;-64
2022/12/29 21:30:33;;;;;;;8.60;5.78;;;;;;;2.78;100.00;99825.94;1710474;82;21036;-64
2022/12/29 21:33:00;;;;;;;7.60;5.90;;;;;;;2.83;100.00;99823.32;1716396;82;21569;-65
2022/12/29 21:35:27;;;;;;;8.10;6.33;;;;;;;2.84;100.00;99819.39;1717758;80;21894;-67
2022/12/29 21:37:54;;;;;;;7.35;5.78;;;;;;;2.85;100.00;99818.97;1717178;81;21568;-64
2022/12/29 21:40:23;;;;;;;9.88;6.58;;;;;;;2.87;100.00;99814.17;1716308;80;22072;-64
2022/12/29 21:42:50;;;;;;;8.13;6.15;;;;;;;2.90;100.00;99814.16;1714150;81;21513;-63
2022/12/29 21:45:26;;;;;;;8.73;5.85;;;;;;;2.92;100.00;99817.61;1711586;82;21642;-65
2022/12/29 21:53:37;;;;;;;6.22;5.08;;;;;;;2.98;100.00;99815.39;1718364;81;21557;-64
2022/12/29 21:56:18;;;;;;;7.70;6.08;;;;;;;2.99;100.00;99809.75;1715791;82;21521;-64
